createdAt,value
2022-12-27T00:00:51.592Z,68.37
2022-12-27T00:03:23.841Z,68.23
2022-12-27T00:06:03.002Z,68.55
2022-12-27T00:08:32.573Z,67.71
2022-12-27T00:11:06.175Z,67.76
2022-12-27T00:13:40.364Z,67.92
2022-12-27T00:16:23.248Z,68.49
2022-12-27T00:18:54.220Z,68.46
2022-12-27T00:21:23.788Z,68.00
2022-12-27T00:23:55.055Z,68.64
2022-12-27T00:26:26.976Z,68.60
2022-12-27T00:29:04.663Z,68.71
2022-12-27T00:31:35.084Z,68.62
2022-12-27T00:34:07.367Z,69.33
2022-12-27T00:36:39.694Z,69.52
2022-12-27T00:39:09.125Z,70.21
2022-12-27T00:41:40.734Z,70.97
2022-12-27T00:44:15.068Z,71.63
2022-12-27T00:46:46.213Z,72.59
2022-12-27T00:49:17.625Z,73.08
2022-12-27T00:51:49.506Z,74.06
2022-12-27T00:54:20.289Z,74.11
2022-12-27T00:56:49.669Z,74.68
2022-12-27T00:59:21.720Z,75.25
2022-12-27T01:01:53.580Z,74.95
2022-12-27T01:04:24.713Z,74.70
2022-12-27T01:07:01.232Z,74.92
2022-12-27T01:09:43.192Z,75.05
2022-12-27T01:12:16.117Z,75.83
2022-12-27T01:14:51.538Z,76.41
2022-12-27T01:17:35.348Z,76.31
2022-12-27T01:20:10.866Z,77.26
2022-12-27T01:22:45.737Z,77.75
2022-12-27T01:25:28.485Z,78.48
2022-12-27T01:27:59.389Z,79.44
2022-12-27T01:30:37.973Z,79.88
2022-12-27T01:33:16.145Z,80.10
2022-12-27T01:35:50.220Z,80.53
2022-12-27T01:38:21.335Z,80.87
2022-12-27T01:40:52.144Z,81.39
2022-12-27T01:43:23.206Z,81.42
2022-12-27T01:45:58.693Z,81.60
2022-12-27T01:48:32.299Z,82.50
2022-12-27T01:51:05.467Z,82.18
2022-12-27T01:53:45.000Z,82.32
2022-12-27T01:56:27.832Z,82.62
2022-12-27T01:59:12.362Z,82.81
2022-12-27T02:01:48.887Z,82.87
2022-12-27T02:04:27.477Z,83.10
2022-12-27T02:07:00.111Z,83.28
2022-12-27T02:09:38.360Z,83.46
2022-12-27T02:12:13.133Z,83.31
2022-12-27T02:14:47.575Z,84.10
2022-12-27T02:17:26.546Z,83.66
2022-12-27T02:20:01.597Z,83.74
2022-12-27T02:23:18.480Z,84.07
2022-12-27T02:26:17.652Z,84.17
2022-12-27T02:29:17.659Z,83.59
2022-12-27T02:31:59.875Z,84.04
2022-12-27T02:34:35.140Z,84.37
2022-12-27T02:37:19.431Z,84.20
2022-12-27T02:39:51.005Z,84.78
2022-12-27T02:42:40.739Z,83.49
2022-12-27T02:45:38.542Z,83.80
2022-12-27T02:48:32.044Z,83.61
2022-12-27T02:51:28.475Z,83.64
2022-12-27T02:54:01.930Z,83.60
2022-12-27T02:56:53.715Z,83.06
2022-12-27T03:00:15.716Z,83.18
2022-12-27T03:03:19.610Z,82.66
2022-12-27T03:06:36.953Z,82.51
2022-12-27T03:09:13.280Z,82.39
2022-12-27T03:12:05.744Z,82.29
2022-12-27T03:14:59.581Z,82.88
2022-12-27T03:17:42.835Z,83.45
2022-12-27T03:20:38.370Z,83.47
2022-12-27T03:23:30.828Z,83.72
2022-12-27T03:26:07.830Z,83.88
2022-12-27T03:28:56.227Z,84.38
2022-12-27T03:31:49.922Z,84.13
2022-12-27T03:34:43.763Z,84.12
2022-12-27T03:37:41.631Z,83.95
2022-12-27T03:40:37.338Z,83.33
2022-12-27T03:43:14.408Z,83.53
2022-12-27T03:46:16.917Z,82.89
2022-12-27T03:49:01.143Z,82.65
2022-12-27T03:51:36.400Z,81.32
2022-12-27T03:54:26.912Z,79.71
2022-12-27T03:56:57.283Z,79.25
2022-12-27T03:59:33.127Z,78.72
2022-12-27T04:02:12.079Z,77.93
2022-12-27T04:04:42.581Z,77.75
2022-12-27T04:07:14.248Z,77.11
2022-12-27T04:10:06.582Z,77.31
2022-12-27T04:12:54.137Z,77.90
2022-12-27T04:15:44.180Z,77.27
2022-12-27T04:18:34.165Z,77.16
2022-12-27T04:21:24.259Z,77.52
2022-12-27T04:24:12.957Z,77.59
2022-12-27T04:27:12.682Z,77.93
2022-12-27T04:30:03.656Z,78.44
2022-12-27T04:32:49.618Z,79.10
2022-12-27T04:35:22.527Z,79.27
2022-12-27T04:37:52.310Z,79.33
2022-12-27T04:40:49.596Z,80.06
2022-12-27T04:43:46.876Z,80.63
2022-12-27T04:46:44.223Z,80.50
2022-12-27T04:49:40.687Z,80.13
2022-12-27T04:52:35.639Z,79.96
2022-12-27T04:55:13.386Z,80.33
2022-12-27T04:57:42.786Z,80.17
2022-12-27T05:00:32.911Z,79.91
2022-12-27T05:03:03.699Z,79.16
2022-12-27T05:05:32.381Z,79.09
2022-12-27T05:08:32.217Z,79.41
2022-12-27T05:11:22.335Z,79.92
2022-12-27T05:14:09.977Z,79.80
2022-12-27T05:16:45.765Z,80.37
2022-12-27T05:19:26.254Z,80.70
2022-12-27T05:22:19.437Z,80.82
2022-12-27T05:25:10.252Z,80.40
2022-12-27T05:27:43.370Z,79.10
2022-12-27T05:30:15.008Z,79.27
2022-12-27T05:32:49.722Z,79.11
2022-12-27T05:35:24.777Z,77.44
2022-12-27T05:37:58.771Z,77.63
2022-12-27T05:40:31.165Z,76.28
2022-12-27T05:43:03.352Z,73.97
2022-12-27T05:45:32.667Z,74.58
2022-12-27T05:48:06.984Z,74.16
2022-12-27T05:50:40.958Z,73.43
2022-12-27T05:53:15.147Z,73.80
2022-12-27T05:55:46.833Z,73.29
2022-12-27T05:58:30.747Z,72.60
2022-12-27T06:01:00.885Z,71.60
2022-12-27T06:03:31.090Z,71.32
2022-12-27T06:06:04.413Z,72.18
2022-12-27T06:08:35.848Z,70.72
2022-12-27T06:11:09.073Z,70.91
2022-12-27T06:13:42.147Z,70.90
2022-12-27T06:16:17.620Z,70.29
2022-12-27T06:19:08.281Z,66.60
2022-12-27T06:21:41.064Z,67.70
2022-12-27T06:24:17.069Z,66.97
2022-12-27T06:26:48.014Z,65.86
2022-12-27T06:29:20.155Z,64.21
2022-12-27T06:31:58.841Z,63.79
2022-12-27T06:34:38.002Z,63.27
2022-12-27T06:37:08.977Z,63.19
2022-12-27T06:39:44.672Z,63.00
2022-12-27T06:42:24.876Z,62.25
2022-12-27T06:44:58.709Z,62.32
2022-12-27T06:47:28.953Z,61.59
2022-12-27T06:50:10.683Z,61.61
2022-12-27T06:52:44.595Z,61.64
2022-12-27T06:55:25.196Z,62.28
2022-12-27T06:58:03.426Z,61.84
2022-12-27T07:00:51.739Z,62.23
2022-12-27T07:03:30.069Z,61.95
2022-12-27T07:06:04.080Z,61.85
2022-12-27T07:08:48.304Z,61.52
2022-12-27T07:11:26.801Z,61.85
2022-12-27T07:14:01.570Z,61.55
2022-12-27T07:16:32.329Z,61.47
2022-12-27T07:19:03.088Z,60.80
2022-12-27T07:21:37.053Z,60.54
2022-12-27T07:24:17.862Z,60.72
2022-12-27T07:26:48.726Z,60.73
2022-12-27T07:29:30.033Z,59.85
2022-12-27T07:32:06.275Z,59.10
2022-12-27T07:34:43.590Z,58.65
2022-12-27T07:37:21.320Z,58.58
2022-12-27T07:39:54.474Z,57.69
2022-12-27T07:42:33.795Z,58.24
2022-12-27T07:45:12.457Z,58.37
2022-12-27T07:47:58.779Z,58.88
2022-12-27T07:50:27.556Z,58.56
2022-12-27T07:53:06.717Z,58.82
2022-12-27T07:55:39.428Z,58.78
2022-12-27T07:58:20.618Z,59.28
2022-12-27T08:01:01.326Z,59.64
2022-12-27T08:03:31.059Z,59.71
2022-12-27T08:06:00.298Z,59.10
2022-12-27T08:08:36.979Z,58.74
2022-12-27T08:11:06.968Z,58.71
2022-12-27T08:13:38.319Z,58.34
2022-12-27T08:16:21.311Z,57.86
2022-12-27T08:18:53.158Z,56.80
2022-12-27T08:21:24.578Z,57.41
2022-12-27T08:23:56.423Z,57.36
2022-12-27T08:26:27.027Z,57.68
2022-12-27T08:28:56.883Z,57.42
2022-12-27T08:31:29.198Z,57.14
2022-12-27T08:33:58.834Z,57.14
2022-12-27T08:36:54.038Z,57.76
2022-12-27T08:39:20.225Z,58.05
2022-12-27T08:41:49.448Z,57.86
2022-12-27T08:44:17.786Z,58.54
2022-12-27T08:46:50.604Z,58.62
2022-12-27T08:49:20.082Z,58.90
2022-12-27T08:51:53.465Z,59.31
2022-12-27T08:54:34.721Z,58.94
2022-12-27T08:57:09.275Z,58.83
2022-12-27T08:59:42.843Z,58.56
2022-12-27T09:02:17.095Z,59.14
2022-12-27T09:04:48.777Z,59.31
2022-12-27T09:07:22.767Z,59.43
2022-12-27T09:09:56.754Z,60.16
2022-12-27T09:12:26.684Z,59.47
2022-12-27T09:15:08.840Z,60.49
2022-12-27T09:17:56.151Z,60.09
2022-12-27T09:20:24.772Z,60.38
2022-12-27T09:23:02.351Z,60.23
2022-12-27T09:25:36.359Z,60.38
2022-12-27T09:28:08.094Z,59.66
2022-12-27T09:30:41.301Z,60.30
2022-12-27T09:33:10.872Z,59.96
2022-12-27T09:35:39.747Z,60.99
2022-12-27T09:38:11.570Z,60.03
2022-12-27T09:40:55.437Z,58.85
2022-12-27T09:43:27.955Z,58.93
2022-12-27T09:46:06.525Z,59.00
2022-12-27T09:48:39.749Z,58.34
2022-12-27T09:51:25.498Z,58.35
2022-12-27T09:54:04.547Z,58.49
2022-12-27T09:57:09.537Z,58.98
2022-12-27T09:59:35.438Z,58.12
2022-12-27T10:02:12.687Z,57.88
2022-12-27T10:05:19.324Z,57.71
2022-12-27T10:07:50.192Z,57.12
2022-12-27T10:10:29.274Z,57.89
2022-12-27T10:16:33.588Z,55.97
2022-12-27T10:19:21.375Z,55.80
2022-12-27T10:22:01.048Z,55.47
2022-12-27T10:24:37.044Z,55.08
2022-12-27T10:27:18.256Z,53.96
2022-12-27T10:29:50.833Z,53.88
2022-12-27T10:32:26.488Z,53.75
2022-12-27T10:35:01.738Z,52.96
2022-12-27T10:37:35.300Z,52.68
2022-12-27T10:40:23.714Z,52.19
2022-12-27T10:43:06.690Z,52.15
2022-12-27T10:45:59.155Z,50.68
2022-12-27T10:49:19.443Z,50.52
2022-12-27T10:51:36.507Z,51.13
2022-12-27T10:54:05.590Z,50.65
2022-12-27T10:56:36.156Z,49.56
2022-12-27T10:59:13.317Z,49.92
2022-12-27T11:01:43.191Z,50.07
2022-12-27T11:04:20.680Z,49.87
2022-12-27T11:06:51.709Z,50.25
2022-12-27T11:09:31.426Z,49.71
2022-12-27T11:12:20.598Z,49.73
2022-12-27T11:14:57.157Z,48.32
2022-12-27T11:17:28.533Z,49.00
2022-12-27T11:19:57.787Z,49.01
2022-12-27T11:22:26.808Z,48.74
2022-12-27T11:24:57.406Z,48.86
2022-12-27T11:27:27.312Z,49.19
2022-12-27T11:29:58.045Z,48.80
2022-12-27T11:32:27.675Z,48.43
2022-12-27T11:34:57.942Z,49.02
2022-12-27T11:37:28.263Z,49.28
2022-12-27T11:40:12.147Z,49.60
2022-12-27T11:42:43.236Z,49.85
2022-12-27T11:45:14.193Z,50.20
2022-12-27T11:47:47.059Z,50.59
2022-12-27T11:50:32.865Z,51.01
2022-12-27T11:53:11.107Z,51.74
2022-12-27T11:55:58.525Z,52.56
2022-12-27T11:59:00.020Z,53.48
2022-12-27T12:01:45.329Z,53.43
2022-12-27T12:04:52.420Z,52.61
2022-12-27T12:07:43.301Z,53.15
2022-12-27T12:10:24.025Z,52.47
2022-12-27T12:13:31.731Z,52.70
2022-12-27T12:16:25.396Z,53.11
2022-12-27T12:19:09.865Z,52.93
2022-12-27T12:21:58.869Z,53.21
2022-12-27T12:25:02.484Z,53.04
2022-12-27T12:27:50.716Z,53.43
2022-12-27T12:31:03.919Z,52.89
2022-12-27T12:34:17.830Z,52.56
2022-12-27T12:37:03.424Z,53.46
2022-12-27T12:39:58.090Z,52.22
2022-12-27T12:42:41.345Z,52.65
2022-12-27T12:45:45.741Z,53.32
2022-12-27T12:48:46.878Z,52.42
2022-12-27T12:51:43.822Z,51.89
2022-12-27T12:54:36.726Z,51.74
2022-12-27T12:57:19.827Z,51.58
2022-12-27T13:00:08.941Z,51.89
2022-12-27T13:03:10.545Z,52.23
2022-12-27T13:05:50.010Z,52.45
2022-12-27T13:08:37.602Z,53.14
2022-12-27T13:11:24.769Z,52.84
2022-12-27T13:14:18.868Z,52.58
2022-12-27T13:17:08.311Z,52.79
2022-12-27T13:20:02.345Z,53.98
2022-12-27T13:22:44.721Z,53.15
2022-12-27T13:25:28.702Z,53.65
2022-12-27T13:28:09.251Z,53.39
2022-12-27T13:30:43.790Z,52.87
2022-12-27T13:33:26.232Z,54.02
2022-12-27T13:36:20.258Z,54.52
2022-12-27T13:39:12.477Z,54.55
2022-12-27T13:41:56.641Z,54.48
2022-12-27T13:44:50.425Z,54.55
2022-12-27T13:48:04.839Z,54.81
2022-12-27T13:51:20.340Z,55.40
2022-12-27T13:54:16.847Z,55.28
2022-12-27T13:56:55.643Z,54.90
2022-12-27T13:59:48.240Z,54.62
2022-12-27T14:03:20.215Z,55.88
2022-12-27T14:06:49.944Z,55.07
2022-12-27T14:09:33.813Z,55.56
2022-12-27T14:12:31.966Z,56.08
2022-12-27T14:15:19.019Z,56.24
2022-12-27T14:18:00.532Z,56.51
2022-12-27T14:20:55.385Z,57.12
2022-12-27T14:24:05.197Z,56.83
2022-12-27T14:27:14.851Z,56.69
2022-12-27T14:30:19.384Z,56.73
2022-12-27T14:33:28.061Z,57.20
2022-12-27T14:36:54.084Z,57.19
2022-12-27T14:40:13.344Z,57.40
2022-12-27T14:43:17.844Z,57.79
2022-12-27T14:46:28.062Z,58.13
2022-12-27T14:49:25.431Z,57.97
2022-12-27T14:52:44.267Z,58.79
2022-12-27T14:55:37.627Z,58.80
2022-12-27T14:58:22.283Z,58.60
2022-12-27T15:01:15.052Z,58.20
2022-12-27T15:04:00.653Z,58.73
2022-12-27T15:06:52.480Z,58.91
2022-12-27T15:09:34.467Z,58.87
2022-12-27T15:12:23.249Z,59.09
2022-12-27T15:15:15.687Z,58.93
2022-12-27T15:18:15.639Z,58.63
2022-12-27T15:21:14.539Z,59.71
2022-12-27T15:23:55.012Z,59.93
2022-12-27T15:26:37.495Z,59.19
2022-12-27T15:29:27.156Z,59.83
2022-12-27T15:32:23.487Z,60.82
2022-12-27T15:35:04.147Z,60.78
2022-12-27T15:38:15.137Z,60.11
2022-12-27T15:41:15.007Z,59.96
2022-12-27T15:44:14.999Z,59.99
2022-12-27T15:47:08.431Z,59.92
2022-12-27T15:50:02.568Z,60.16
2022-12-27T15:53:01.766Z,60.43
2022-12-27T15:55:55.429Z,60.18
2022-12-27T15:58:32.370Z,61.67
2022-12-27T16:01:31.239Z,60.91
2022-12-27T16:04:47.648Z,60.83
2022-12-27T16:10:48.500Z,61.04
2022-12-27T16:13:43.265Z,61.77
2022-12-27T16:16:58.613Z,61.36
2022-12-27T16:20:04.177Z,61.15
2022-12-27T16:22:44.689Z,62.00
2022-12-27T16:25:32.284Z,61.60
2022-12-27T16:28:05.608Z,62.11
2022-12-27T16:31:07.732Z,62.36
2022-12-27T16:33:46.913Z,62.12
2022-12-27T16:36:25.781Z,62.62
2022-12-27T16:39:28.298Z,62.39
2022-12-27T16:42:11.488Z,62.54
2022-12-27T16:45:26.127Z,63.01
2022-12-27T16:48:15.895Z,62.82
2022-12-27T16:51:04.064Z,62.53
2022-12-27T16:53:51.826Z,63.23
2022-12-27T16:56:25.690Z,63.40
2022-12-27T16:59:02.253Z,63.57
2022-12-27T17:02:16.409Z,63.19
2022-12-27T17:05:04.923Z,63.59
2022-12-27T17:08:19.388Z,62.97
2022-12-27T17:11:28.529Z,63.80
2022-12-27T17:14:02.743Z,65.00
2022-12-27T17:16:50.259Z,64.37
2022-12-27T17:19:29.204Z,64.82
2022-12-27T17:22:08.400Z,64.75
2022-12-27T17:24:38.307Z,64.17
2022-12-27T17:27:17.471Z,65.08
2022-12-27T17:30:01.476Z,65.10
2022-12-27T17:32:53.037Z,64.92
2022-12-27T17:35:32.880Z,65.23
2022-12-27T17:38:15.203Z,65.16
2022-12-27T17:40:54.723Z,65.24
2022-12-27T17:44:03.105Z,64.96
2022-12-27T17:46:43.076Z,65.60
2022-12-27T17:49:19.557Z,65.60
2022-12-27T17:52:11.050Z,65.94
2022-12-27T17:55:03.737Z,66.23
2022-12-27T17:58:04.517Z,66.50
2022-12-27T18:00:37.729Z,66.32
2022-12-27T18:03:18.171Z,66.91
2022-12-27T18:05:59.174Z,66.88
2022-12-27T18:08:34.315Z,66.18
2022-12-27T18:11:12.647Z,65.75
2022-12-27T18:13:56.804Z,65.99
2022-12-27T18:16:33.484Z,66.05
2022-12-27T18:19:05.747Z,66.71
2022-12-27T18:21:38.596Z,66.65
2022-12-27T18:24:29.241Z,65.80
2022-12-27T18:27:08.807Z,66.22
2022-12-27T18:29:44.369Z,66.85
2022-12-27T18:32:27.298Z,66.35
2022-12-27T18:34:58.911Z,67.36
2022-12-27T18:37:38.803Z,66.51
2022-12-27T18:40:25.492Z,67.32
2022-12-27T18:42:59.817Z,66.54
2022-12-27T18:45:31.238Z,67.18
2022-12-27T18:48:03.491Z,66.43
2022-12-27T18:50:48.719Z,67.36
2022-12-27T18:53:29.120Z,67.06
2022-12-27T18:56:03.184Z,67.17
2022-12-27T18:58:34.390Z,67.12
2022-12-27T19:01:06.383Z,66.77
2022-12-27T19:03:52.843Z,66.92
2022-12-27T19:06:26.989Z,66.62
2022-12-27T19:09:06.175Z,66.60
2022-12-27T19:11:52.879Z,66.35
2022-12-27T19:14:33.640Z,67.50
2022-12-27T19:17:10.976Z,66.71
2022-12-27T19:19:43.013Z,67.25
2022-12-27T19:22:33.429Z,66.72
2022-12-27T19:25:17.198Z,66.44
2022-12-27T19:28:06.211Z,67.10
2022-12-27T19:30:47.633Z,67.25
2022-12-27T19:33:29.436Z,66.89
2022-12-27T19:36:08.051Z,67.72
2022-12-27T19:38:48.140Z,67.39
2022-12-27T19:41:34.543Z,67.38
2022-12-27T19:44:12.517Z,67.50
2022-12-27T19:46:43.556Z,68.29
2022-12-27T19:49:44.786Z,68.86
2022-12-27T19:52:31.391Z,69.33
2022-12-27T19:55:04.104Z,69.36
2022-12-27T19:57:50.539Z,69.59
2022-12-27T20:00:30.776Z,69.61
2022-12-27T20:03:08.858Z,69.69
2022-12-27T20:06:11.844Z,70.97
2022-12-27T20:08:39.752Z,71.54
2022-12-27T20:11:19.561Z,72.09
2022-12-27T20:14:04.483Z,71.37
2022-12-27T20:16:38.432Z,71.43
2022-12-27T20:19:20.787Z,70.93
2022-12-27T20:22:01.493Z,70.81
2022-12-27T20:24:40.299Z,71.70
2022-12-27T20:27:23.828Z,72.23
2022-12-27T20:30:06.127Z,71.96
2022-12-27T20:32:44.341Z,71.50
2022-12-27T20:35:22.134Z,71.90
2022-12-27T20:37:58.445Z,72.29
2022-12-27T20:40:28.212Z,71.68
2022-12-27T20:43:01.866Z,72.20
2022-12-27T20:45:37.944Z,71.91
2022-12-27T20:48:11.466Z,72.40
2022-12-27T20:50:49.889Z,73.05
2022-12-27T20:53:28.118Z,72.68
2022-12-27T20:56:00.897Z,72.92
2022-12-27T20:58:48.403Z,73.38
2022-12-27T21:01:33.290Z,73.34
2022-12-27T21:04:06.924Z,74.06
2022-12-27T21:06:45.350Z,73.25
2022-12-27T21:09:13.533Z,73.12
2022-12-27T21:11:43.054Z,74.11
2022-12-27T21:14:22.358Z,73.78
2022-12-27T21:17:03.740Z,74.49
2022-12-27T21:19:36.658Z,75.45
2022-12-27T21:22:07.132Z,74.75
2022-12-27T21:24:36.640Z,75.19
2022-12-27T21:27:07.273Z,75.39
2022-12-27T21:29:39.241Z,75.03
2022-12-27T21:32:25.050Z,75.30
2022-12-27T21:34:55.510Z,75.59
2022-12-27T21:37:28.760Z,75.07
2022-12-27T21:40:01.253Z,76.23
2022-12-27T21:42:42.148Z,76.38
2022-12-27T21:45:19.453Z,76.30
2022-12-27T21:48:03.419Z,76.04
2022-12-27T21:50:38.077Z,76.79
2022-12-27T21:53:08.500Z,76.36
2022-12-27T21:55:40.058Z,76.68
2022-12-27T21:58:10.811Z,76.60
2022-12-27T22:00:45.056Z,77.23
2022-12-27T22:03:24.186Z,76.95
2022-12-27T22:05:56.480Z,76.53
2022-12-27T22:08:28.459Z,76.74
2022-12-27T22:11:06.196Z,77.22
2022-12-27T22:13:38.739Z,76.56
2022-12-27T22:16:21.697Z,76.53
2022-12-27T22:19:02.586Z,77.59
2022-12-27T22:21:42.854Z,77.12
2022-12-27T22:24:20.000Z,78.30
2022-12-27T22:26:58.845Z,77.62
2022-12-27T22:29:38.035Z,77.59
2022-12-27T22:32:14.910Z,77.11
2022-12-27T22:35:01.373Z,78.05
2022-12-27T22:37:32.157Z,78.37
2022-12-27T22:40:00.452Z,76.88
2022-12-27T22:42:35.319Z,77.90
2022-12-27T22:45:14.244Z,78.06
2022-12-27T22:47:54.757Z,78.96
2022-12-27T22:50:25.893Z,78.41
2022-12-27T22:52:56.554Z,78.75
2022-12-27T22:55:28.156Z,79.45
2022-12-27T22:58:08.944Z,78.39
2022-12-27T23:00:46.116Z,79.17
2022-12-27T23:03:19.817Z,79.02
2022-12-27T23:06:03.144Z,79.33
2022-12-27T23:08:32.638Z,78.31
2022-12-27T23:11:08.255Z,78.37
2022-12-27T23:13:36.734Z,78.92
2022-12-27T23:16:07.715Z,79.10
2022-12-27T23:18:41.637Z,78.92
2022-12-27T23:21:21.863Z,78.50
2022-12-27T23:24:02.987Z,78.16
2022-12-27T23:26:40.531Z,79.47
2022-12-27T23:29:15.190Z,80.10
2022-12-27T23:31:54.362Z,79.14
2022-12-27T23:34:29.340Z,79.67
2022-12-27T23:37:08.934Z,78.33
2022-12-27T23:39:44.978Z,79.26
2022-12-27T23:42:15.058Z,79.77
2022-12-27T23:44:46.390Z,80.02
2022-12-27T23:47:16.034Z,80.13
2022-12-27T23:49:49.860Z,81.15
2022-12-27T23:52:33.430Z,81.03
2022-12-27T23:55:10.141Z,80.03
2022-12-27T23:57:47.725Z,81.44
